createdAt,value
2024-04-21T00:04:43.408Z,81.69
2024-04-21T00:09:46.366Z,81.45
2024-04-21T00:14:51.960Z,81.11
2024-04-21T00:19:58.522Z,81.33
2024-04-21T00:25:09.196Z,80.95
2024-04-21T00:30:23.323Z,80.30
2024-04-21T00:35:26.977Z,80.03
2024-04-21T00:40:29.668Z,79.44
2024-04-21T00:45:37.515Z,78.82
2024-04-21T00:50:47.514Z,78.91
2024-04-21T00:56:02.363Z,78.38
2024-04-21T01:05:15.958Z,78.10
2024-04-21T01:10:27.451Z,77.66
2024-04-21T01:15:29.798Z,77.47
2024-04-21T01:20:39.774Z,77.28
2024-04-21T01:25:42.304Z,76.89
2024-04-21T01:30:48.222Z,75.84
2024-04-21T01:35:50.890Z,75.26
2024-04-21T01:41:01.161Z,74.73
2024-04-21T01:46:09.131Z,75.09
2024-04-21T01:51:14.952Z,75.12
2024-04-21T01:56:18.665Z,75.53
2024-04-21T02:01:21.579Z,75.09
2024-04-21T02:06:24.343Z,74.27
2024-04-21T02:11:32.761Z,73.50
2024-04-21T02:16:39.906Z,72.01
2024-04-21T02:21:49.478Z,70.88
2024-04-21T02:26:56.940Z,70.07
2024-04-21T02:32:35.777Z,68.77
2024-04-21T02:41:03.773Z,69.23
2024-04-21T02:46:19.811Z,67.83
2024-04-21T02:51:36.009Z,68.44
2024-04-21T02:56:51.773Z,68.34
2024-04-21T03:01:55.554Z,68.20
2024-04-21T03:07:06.060Z,67.77
2024-04-21T03:12:09.270Z,67.83
2024-04-21T03:17:14.819Z,67.67
2024-04-21T03:22:55.223Z,67.43
2024-04-21T03:28:01.783Z,67.13
2024-04-21T03:33:14.954Z,67.10
2024-04-21T03:38:26.737Z,66.29
2024-04-21T03:43:36.545Z,65.78
2024-04-21T03:48:40.818Z,66.45
2024-04-21T03:54:37.995Z,65.50
2024-04-21T03:59:49.624Z,64.85
2024-04-21T04:10:39.969Z,62.09
2024-04-21T04:15:48.979Z,60.79
2024-04-21T04:20:58.698Z,57.29
2024-04-21T04:26:06.368Z,59.85
2024-04-21T04:31:17.000Z,58.54
2024-04-21T04:36:22.223Z,59.30
2024-04-21T04:41:34.370Z,58.55
2024-04-21T04:46:43.258Z,58.42
2024-04-21T04:51:58.655Z,58.08
2024-04-21T04:57:12.671Z,57.42
2024-04-21T05:02:16.211Z,57.61
2024-04-21T05:07:22.984Z,57.29
2024-04-21T05:12:32.191Z,57.17
2024-04-21T05:17:40.827Z,58.43
2024-04-21T05:22:47.046Z,58.43
2024-04-21T05:27:53.948Z,58.66
2024-04-21T05:38:41.485Z,58.50
2024-04-21T05:44:30.029Z,62.06
2024-04-21T05:50:04.794Z,65.49
2024-04-21T05:55:31.842Z,65.81
2024-04-21T06:00:46.928Z,66.38
2024-04-21T06:05:57.724Z,66.32
2024-04-21T06:17:21.652Z,67.83
2024-04-21T06:22:28.792Z,68.11
2024-04-21T06:32:55.268Z,68.38
2024-04-21T06:38:03.222Z,67.79
2024-04-21T06:43:08.339Z,67.69
2024-04-21T06:48:20.081Z,67.89
2024-04-21T06:53:35.669Z,68.13
2024-04-21T06:59:23.446Z,67.96
2024-04-21T07:04:37.964Z,67.27
2024-04-21T07:09:50.724Z,67.36
2024-04-21T07:14:56.979Z,66.95
2024-04-21T07:20:09.335Z,65.92
2024-04-21T07:25:24.882Z,66.06
2024-04-21T07:30:35.333Z,65.40
2024-04-21T07:35:42.001Z,64.94
2024-04-21T07:40:45.333Z,64.34
2024-04-21T07:45:51.581Z,63.12
2024-04-21T07:51:00.931Z,62.81
2024-04-21T07:56:08.544Z,62.50
2024-04-21T08:01:19.238Z,62.15
2024-04-21T08:06:34.439Z,59.49
2024-04-21T08:11:49.504Z,60.09
2024-04-21T08:22:44.490Z,58.55
2024-04-21T08:27:58.579Z,59.87
2024-04-21T08:33:08.977Z,59.71
2024-04-21T08:38:19.950Z,59.41
2024-04-21T08:43:26.921Z,58.96
2024-04-21T08:48:44.470Z,58.29
2024-04-21T08:54:25.123Z,58.11
2024-04-21T08:59:47.246Z,57.12
2024-04-21T09:05:06.761Z,56.88
2024-04-21T09:10:22.744Z,57.27
2024-04-21T09:15:27.146Z,56.70
2024-04-21T09:20:44.909Z,55.98
2024-04-21T09:25:52.928Z,55.48
2024-04-21T09:31:08.314Z,55.21
2024-04-21T09:36:29.839Z,54.49
2024-04-21T09:41:43.720Z,54.91
2024-04-21T09:47:02.825Z,54.99
2024-04-21T09:52:25.683Z,54.49
2024-04-21T09:57:44.012Z,54.49
2024-04-21T10:02:58.330Z,54.27
2024-04-21T10:08:06.060Z,54.02
2024-04-21T10:13:16.747Z,53.20
2024-04-21T10:18:26.738Z,53.41
2024-04-21T10:23:44.258Z,53.15
2024-04-21T10:28:46.754Z,52.65
2024-04-21T10:34:13.731Z,50.77
2024-04-21T10:39:49.138Z,50.24
2024-04-21T10:44:58.898Z,51.83
2024-04-21T10:50:16.430Z,51.19
2024-04-21T11:00:51.897Z,49.46
2024-04-21T11:06:10.366Z,49.58
2024-04-21T11:11:27.616Z,49.64
2024-04-21T11:16:38.044Z,48.60
2024-04-21T11:21:50.105Z,49.43
2024-04-21T11:26:58.629Z,49.69
2024-04-21T11:32:01.588Z,50.05
2024-04-21T11:37:04.510Z,49.31
2024-04-21T11:42:15.926Z,49.31
2024-04-21T11:47:33.215Z,48.76
2024-04-21T11:52:46.085Z,49.39
2024-04-21T11:57:51.921Z,50.03
2024-04-21T12:03:00.259Z,49.95
2024-04-21T12:08:02.740Z,50.06
2024-04-21T12:13:05.660Z,49.81
2024-04-21T12:18:23.092Z,50.07
2024-04-21T12:23:28.349Z,51.14
2024-04-21T12:28:34.231Z,50.57
2024-04-21T12:33:48.893Z,50.82
2024-04-21T12:38:55.314Z,50.55
2024-04-21T12:44:24.584Z,51.26
2024-04-21T12:49:36.480Z,50.79
2024-04-21T12:54:51.129Z,51.30
2024-04-21T13:00:00.859Z,51.09
2024-04-21T13:05:14.665Z,51.17
2024-04-21T13:10:26.909Z,51.57
2024-04-21T13:15:46.995Z,52.02
2024-04-21T13:20:54.695Z,51.71
2024-04-21T13:31:41.231Z,53.04
2024-04-21T13:36:50.140Z,53.05
2024-04-21T13:42:05.721Z,53.57
2024-04-21T13:47:09.610Z,53.87
2024-04-21T13:52:20.461Z,54.19
2024-04-21T13:57:33.671Z,54.66
2024-04-21T14:02:57.418Z,54.63
2024-04-21T14:08:05.508Z,55.19
2024-04-21T14:13:28.019Z,55.13
2024-04-21T14:18:41.827Z,56.07
2024-04-21T14:24:00.840Z,56.29
2024-04-21T14:29:14.775Z,56.01
2024-04-21T14:34:47.743Z,56.59
2024-04-21T14:39:56.542Z,57.13
2024-04-21T14:45:15.081Z,56.66
2024-04-21T15:01:56.581Z,57.57
2024-04-21T15:07:01.443Z,57.66
2024-04-21T15:12:15.815Z,57.33
2024-04-21T15:17:35.325Z,57.32
2024-04-21T15:22:40.945Z,57.83
2024-04-21T15:27:48.586Z,58.54
2024-04-21T15:32:55.408Z,58.46
2024-04-21T15:38:02.323Z,59.50
2024-04-21T15:43:14.059Z,59.62
2024-04-21T15:48:22.393Z,59.98
2024-04-21T15:53:31.706Z,59.78
2024-04-21T15:58:43.056Z,59.90
2024-04-21T16:03:49.691Z,60.29
2024-04-21T16:08:58.715Z,60.69
2024-04-21T16:14:07.778Z,61.02
2024-04-21T16:19:26.200Z,61.37
2024-04-21T16:24:37.635Z,60.80
2024-04-21T16:35:47.664Z,61.42
2024-04-21T16:41:08.165Z,62.24
2024-04-21T16:46:19.703Z,62.26
2024-04-21T16:51:28.107Z,62.16
2024-04-21T16:57:00.443Z,62.77
2024-04-21T17:02:19.466Z,62.03
2024-04-21T17:07:39.289Z,62.72
2024-04-21T17:12:47.599Z,62.61
2024-04-21T17:18:00.918Z,63.04
2024-04-21T17:23:09.060Z,62.99
2024-04-21T17:28:43.435Z,63.31
2024-04-21T17:34:02.706Z,63.00
2024-04-21T17:39:21.173Z,63.33
2024-04-21T17:44:29.643Z,63.06
2024-04-21T17:49:35.735Z,63.51
2024-04-21T17:54:48.640Z,64.01
2024-04-21T18:00:03.610Z,63.96
2024-04-21T18:05:22.729Z,64.81
2024-04-21T18:10:30.854Z,65.29
2024-04-21T18:15:38.543Z,65.30
2024-04-21T18:20:46.940Z,65.29
2024-04-21T18:25:52.314Z,65.57
2024-04-21T18:31:03.455Z,65.95
2024-04-21T18:36:09.452Z,66.44
2024-04-21T18:41:19.890Z,66.85
2024-04-21T18:46:34.154Z,68.11
2024-04-21T18:51:54.804Z,66.90
2024-04-21T18:57:07.531Z,67.33
2024-04-21T19:02:16.636Z,67.45
2024-04-21T19:07:23.332Z,67.18
2024-04-21T19:12:35.046Z,67.86
2024-04-21T19:17:50.272Z,67.75
2024-04-21T19:22:58.938Z,67.88
2024-04-21T19:28:09.660Z,67.44
2024-04-21T19:33:18.201Z,67.27
2024-04-21T19:38:25.902Z,67.64
2024-04-21T19:43:37.193Z,68.21
2024-04-21T19:48:50.689Z,67.87
2024-04-21T19:53:58.475Z,68.25
2024-04-21T19:59:06.332Z,67.55
2024-04-21T20:04:17.653Z,68.11
2024-04-21T20:09:29.189Z,67.93
2024-04-21T20:14:57.640Z,68.48
2024-04-21T20:20:24.405Z,69.75
2024-04-21T20:25:49.782Z,69.03
2024-04-21T20:31:17.624Z,69.91
2024-04-21T20:36:35.854Z,69.43
2024-04-21T20:41:55.229Z,69.47
2024-04-21T20:47:09.844Z,70.01
2024-04-21T20:52:45.701Z,69.66
2024-04-21T20:57:53.045Z,70.06
2024-04-21T21:03:03.418Z,70.38
2024-04-21T21:08:13.654Z,70.50
2024-04-21T21:13:22.139Z,70.96
2024-04-21T21:18:29.812Z,71.46
2024-04-21T21:23:34.738Z,71.85
2024-04-21T21:29:02.199Z,73.21
2024-04-21T21:34:38.312Z,72.23
2024-04-21T21:45:06.040Z,72.36
2024-04-21T21:56:47.605Z,73.03
2024-04-21T22:01:55.792Z,73.26
2024-04-21T22:07:07.543Z,73.79
2024-04-21T22:12:15.071Z,74.59
2024-04-21T22:17:19.325Z,74.13
2024-04-21T22:22:29.017Z,75.47
2024-04-21T22:27:34.632Z,74.29
2024-04-21T22:32:59.414Z,74.67
2024-04-21T22:43:45.718Z,74.73
2024-04-21T22:54:18.582Z,75.53
2024-04-21T22:59:24.719Z,74.77
2024-04-21T23:04:29.364Z,75.19
2024-04-21T23:09:43.728Z,75.43
2024-04-21T23:14:59.255Z,75.46
2024-04-21T23:20:10.931Z,75.16
2024-04-21T23:30:34.109Z,75.46
2024-04-21T23:35:43.449Z,75.30
2024-04-21T23:41:08.852Z,75.15
2024-04-21T23:46:18.926Z,75.39
2024-04-21T23:51:24.638Z,74.94
